Artesia ASC

2020-08-10 13:40:00

  • imperial
Date Time Air Temperature Relative Humidity Dewpoint Windchill Heat Index Wind Speed Wind Dir. Rain Solar Radiation Soil Temperature
2m 2m 3m 3m 10cm
US/Mountain F % F F F MPH deg in MJ/m^2 F
max avg avg
2020-08-09 13:50:00 97.2 19.3 48.5 97.2 97.2 1.5 8.8 4.4 305.7 173.6 0.00 0.8750000 86.0
2020-08-09 13:55:00 98.7 22.6 54.0 98.7 98.7 4.6 9.7 5.0 153.4 193.8 0.00 0.8720000 86.1
2020-08-09 14:00:00 99.2 17.6 47.7 99.2 99.2 6.2 12.1 8.1 128.1 145.8 0.00 0.8710000 86.2
2020-08-09 14:05:00 98.6 18.5 48.6 98.6 98.6 3.3 7.1 4.6 41.2 100.9 0.00 0.8730000 86.4
2020-08-09 14:10:00 100.6 18.0 49.4 100.6 100.6 5.3 5.3 2.6 216.3 266.2 0.00 0.8740000 86.5
2020-08-09 14:15:00 99.0 21.0 52.3 99.0 99.0 3.7 9.4 6.2 153.6 188.9 0.00 0.8680000 86.6
2020-08-09 14:20:00 99.2 19.0 49.7 99.2 99.2 10.3 13.5 8.8 163.1 185.7 0.00 0.8660000 86.8
2020-08-09 14:25:00 99.0 20.8 52.0 99.0 99.0 7.2 10.3 7.1 182.3 185.7 0.00 0.8690000 86.9
2020-08-09 14:30:00 98.8 17.6 47.3 98.8 98.8 2.1 9.0 6.1 153.0 170.3 0.00 0.8880000 87.0
2020-08-09 14:35:00 98.6 20.1 50.8 98.6 98.6 8.1 9.7 4.4 192.1 186.1 0.00 0.1150000 87.2
2020-08-09 14:40:00 96.3 22.3 51.6 96.3 96.3 5.5 9.2 7.0 159.1 176.0 0.00 0.1110000 87.3
2020-08-09 14:45:00 96.1 24.2 53.7 96.1 96.1 4.0 6.9 4.7 185.8 174.9 0.00 0.1060000 87.4
2020-08-09 14:50:00 95.5 21.5 50.1 95.5 95.5 13.7 16.2 12.2 154.8 183.1 0.00 0.1090000 87.5
2020-08-09 14:55:00 95.6 21.8 50.5 95.6 95.6 14.2 16.5 11.7 156.6 185.3 0.00 0.1080000 87.7
2020-08-09 15:00:00 95.3 22.1 50.6 95.3 95.3 13.7 16.2 11.8 175.1 183.1 0.00 0.1070000 87.7
2020-08-09 15:05:00 95.3 22.9 51.6 95.3 95.3 12.4 14.9 11.9 194.4 180.0 0.00 0.1120000 87.9
2020-08-09 15:10:00 95.3 22.3 50.9 95.3 95.3 12.8 15.6 11.8 184.3 181.2 0.00 0.1510000 87.9
2020-08-09 15:15:00 95.6 23.3 52.2 95.6 95.6 8.0 15.5 9.8 170.8 191.5 0.00 0.2250000 88.0
2020-08-09 15:20:00 95.3 23.1 51.8 95.3 95.3 11.9 13.9 11.1 162.8 191.6 0.00 0.2230000 88.1
2020-08-09 15:25:00 94.9 23.7 52.1 94.9 94.9 6.5 14.4 9.8 161.9 196.6 0.00 0.1800000 88.1
2020-08-09 15:30:00 95.3 21.2 49.5 95.3 95.3 15.8 17.4 12.5 225.6 187.4 0.00 0.1580000 88.2
2020-08-09 15:35:00 94.8 22.0 50.1 94.8 94.8 13.0 17.8 10.1 220.4 213.2 0.00 0.1320000 88.2
2020-08-09 15:40:00 94.5 23.6 51.7 94.5 94.5 6.7 12.2 8.3 191.1 193.2 0.00 0.1020000 88.2
2020-08-09 15:45:00 94.2 22.6 50.3 94.2 94.2 5.3 9.6 6.4 160.7 186.4 0.00 0.0840000 88.2
2020-08-09 15:50:00 94.7 21.3 49.1 94.7 94.7 7.4 9.0 6.3 166.9 172.4 0.00 0.0700000 88.2
2020-08-09 15:55:00 94.5 20.1 47.4 94.5 94.5 5.1 8.7 6.9 202.4 182.5 0.00 0.0610000 88.2
2020-08-09 16:00:00 91.3 31.5 56.9 91.3 91.3 15.5 21.7 9.6 294.5 234.6 0.00 0.0430000 88.2
2020-08-09 16:05:00 87.3 35.2 56.4 87.3 87.3 16.4 24.4 17.0 300.6 286.6 0.00 0.0340000 88.2
2020-08-09 16:10:00 86.6 35.4 56.0 86.6 86.6 22.6 23.7 17.3 267.1 285.0 0.00 0.0340000 88.2
2020-08-09 16:15:00 85.0 39.1 57.4 85.0 85.0 13.9 22.8 17.4 283.2 284.2 0.00 0.0320000 88.2
2020-08-09 16:20:00 85.7 35.0 54.9 85.7 85.7 21.4 24.0 18.0 285.1 278.0 0.00 0.0310000 88.1
2020-08-09 16:25:00 86.1 36.6 56.5 86.1 86.1 21.9 29.2 21.3 281.6 285.0 0.00 0.0300000 88.1
2020-08-09 16:30:00 84.3 41.0 58.0 84.3 83.7 18.1 23.5 18.4 288.5 283.2 0.00 0.0310000 88.1
2020-08-09 16:35:00 85.3 37.2 56.2 85.3 85.3 20.8 26.0 19.8 296.7 283.1 0.00 0.0300000 88.0
2020-08-09 16:40:00 87.0 36.1 56.9 87.0 87.0 11.5 21.9 17.6 271.5 287.2 0.00 0.0300000 88.0
2020-08-09 16:45:00 86.7 37.9 58.0 86.7 86.7 12.4 18.0 14.4 304.6 289.2 0.00 0.0330000 88.0
2020-08-09 16:50:00 85.9 37.9 57.3 85.9 85.9 12.8 18.3 14.3 319.0 302.6 0.00 0.0390000 87.9
2020-08-09 16:55:00 85.5 37.4 56.6 85.5 85.5 11.7 18.3 13.6 304.6 308.3 0.00 0.0470000 87.9
2020-08-09 17:00:00 86.5 34.6 55.3 86.5 86.5 10.3 13.5 9.5 325.8 318.8 0.00 0.0550000 87.8
2020-08-09 17:05:00 87.2 34.2 55.6 87.2 87.2 7.2 11.5 9.2 304.8 320.3 0.00 0.0620000 87.7
2020-08-09 17:10:00 87.1 34.2 55.5 87.1 87.1 5.3 8.1 6.7 335.8 329.0 0.00 0.0730000 87.6
2020-08-09 17:15:00 87.4 34.5 56.0 87.4 87.4 7.2 7.2 5.6 312.1 324.1 0.00 0.0890000 87.6
2020-08-09 17:20:00 88.0 29.5 52.2 88.0 88.0 2.6 6.0 4.0 11.9 344.8 0.00 0.1150000 87.5
2020-08-09 17:25:00 90.0 27.7 52.3 90.0 90.0 3.1 3.8 2.6 26.4 29.3 0.00 0.1860000 87.5
2020-08-09 17:30:00 91.7 26.5 52.6 91.7 91.7 5.1 5.6 3.4 56.7 42.7 0.00 0.5640000 87.4
2020-08-09 17:35:00 93.5 26.4 54.0 93.5 93.5 3.5 6.3 4.8 26.1 40.0 0.00 0.3000000 87.3
2020-08-09 17:40:00 93.7 25.7 53.3 93.7 93.7 3.0 4.7 3.1 38.3 42.6 0.00 0.2420000 87.3
2020-08-09 17:45:00 93.9 28.5 56.3 93.9 93.9 2.6 3.5 2.4 104.0 82.0 0.00 0.4290000 87.2
2020-08-09 17:50:00 94.2 26.8 54.9 94.2 94.2 3.3 4.0 3.1 83.4 90.7 0.00 0.3780000 87.2
2020-08-09 17:55:00 94.8 24.9 53.4 94.8 94.8 3.3 4.2 2.8 71.8 79.3 0.00 0.3400000 87.2
2020-08-09 18:00:00 95.3 24.2 53.0 95.3 95.3 3.1 3.7 2.7 95.9 78.4 0.00 0.3270000 87.1
2020-08-09 18:05:00 95.3 23.0 51.6 95.3 95.3 0.8 3.7 2.1 38.1 63.0 0.00 0.2940000 87.0
2020-08-09 18:10:00 96.1 21.6 50.7 96.1 96.1 2.1 2.4 1.5 90.9 81.0 0.00 0.2630000 87.0
2020-08-09 18:15:00 96.0 21.6 50.6 96.0 96.0 0.0 2.4 1.6 82.4 86.2 0.00 0.3090000 87.0
2020-08-09 18:20:00 96.6 20.0 49.0 96.6 96.6 1.7 2.2 1.5 108.0 81.9 0.00 0.2940000 87.0
2020-08-09 18:25:00 97.0 19.9 49.1 97.0 97.0 1.9 2.6 1.9 101.2 116.3 0.00 0.2660000 86.9
2020-08-09 18:30:00 97.3 19.9 49.4 97.3 97.3 2.2 2.2 1.7 110.4 135.2 0.00 0.2420000 86.9
2020-08-09 18:35:00 96.9 21.1 50.6 96.9 96.9 2.6 3.3 2.4 125.5 112.0 0.00 0.2100000 86.9
2020-08-09 18:40:00 96.6 20.2 49.3 96.6 96.6 3.0 4.0 3.2 121.1 109.2 0.00 0.0720000 86.9
2020-08-09 18:45:00 96.9 20.2 49.5 96.9 96.9 1.3 3.7 2.3 134.9 131.2 0.00 0.0560000 86.8
2020-08-09 18:50:00 96.5 23.0 52.6 96.5 96.5 3.0 4.4 2.7 122.9 112.7 0.00 0.0530000 86.8
2020-08-09 18:55:00 96.3 23.2 52.7 96.3 96.3 4.7 5.5 4.4 133.7 125.8 0.00 0.0520000 86.8
2020-08-09 19:00:00 96.0 21.9 50.9 96.0 96.0 4.0 6.3 4.9 158.0 145.4 0.00 0.0490000 86.8
2020-08-09 19:05:00 94.9 22.8 51.1 94.9 94.9 6.2 6.2 3.8 161.5 148.5 0.00 0.0930000 86.8
2020-08-09 19:10:00 95.0 21.7 49.9 95.0 95.0 3.7 6.3 4.7 143.3 156.0 0.00 0.0870000 86.8
2020-08-09 19:15:00 95.2 23.1 51.7 95.2 95.2 3.8 5.5 3.6 136.2 141.7 0.00 0.0660000 86.8
2020-08-09 19:20:00 94.8 22.8 51.0 94.8 94.8 3.3 4.4 3.6 144.3 138.7 0.00 0.0560000 86.8
2020-08-09 19:25:00 93.8 24.5 52.1 93.8 93.8 3.1 3.8 3.2 139.9 136.1 0.00 0.0300000 86.8
2020-08-09 19:30:00 93.3 24.5 51.7 93.3 93.3 2.8 3.5 2.9 143.2 143.3 0.00 0.0170000 86.7
2020-08-09 19:35:00 92.4 24.6 51.1 92.4 92.4 2.1 3.0 2.5 148.2 146.8 0.00 0.0120000 86.8
2020-08-09 19:40:00 92.0 24.4 50.5 92.0 92.0 2.1 2.2 1.8 154.5 148.9 0.00 0.0070000 86.7
2020-08-09 19:45:00 91.5 24.8 50.5 91.5 91.5 0.0 1.9 1.1 167.0 160.8 0.00 0.0040000 86.7
2020-08-09 19:50:00 91.1 24.9 50.2 91.1 91.1 1.7 1.9 1.2 177.2 178.3 0.00 0.0020000 86.7
2020-08-09 19:55:00 91.0 25.1 50.5 91.0 91.0 1.3 1.9 1.7 199.7 190.5 0.00 0.0020000 86.7
2020-08-09 20:00:00 90.9 25.6 50.8 90.9 90.9 1.5 1.7 1.5 162.6 178.0 0.00 0.0010000 86.6
2020-08-09 20:05:00 90.4 26.1 51.0 90.4 90.4 0.0 1.3 0.2 154.7 161.1 0.00 0.0000000 86.6
2020-08-09 20:10:00 89.7 26.8 51.1 89.7 89.7 0.0 0.0 0.0 154.7 0.0 0.00 0.0000000 86.6
2020-08-09 20:15:00 89.4 27.0 51.1 89.4 89.4 0.0 0.0 0.0 154.7 0.0 0.00 0.0000000 86.6
2020-08-09 20:20:00 89.4 28.8 52.8 89.4 89.4 0.0 0.0 0.0 115.3 0.0 0.00 0.0000000 86.6
2020-08-09 20:25:00 89.7 28.3 52.6 89.7 89.7 0.0 0.0 0.0 59.7 0.0 0.00 0.0000000 86.6
2020-08-09 20:30:00 89.5 28.4 52.4 89.5 89.5 2.8 2.8 1.5 46.7 50.8 0.00 0.0000000 86.5
2020-08-09 20:35:00 88.1 35.3 57.3 88.1 88.1 3.1 7.4 4.1 44.4 55.9 0.00 0.0000000 86.5
2020-08-09 20:40:00 85.4 39.8 58.3 85.4 85.4 3.7 5.3 2.8 59.5 74.4 0.00 0.0000000 86.5
2020-08-09 20:45:00 84.1 38.6 56.1 84.1 84.1 2.2 3.7 2.5 49.9 77.5 0.00 0.0000000 86.4
2020-08-09 20:50:00 83.6 41.1 57.5 83.6 83.1 2.6 3.5 2.5 66.7 89.0 0.00 0.0000000 86.4
2020-08-09 20:55:00 82.9 41.3 57.0 82.9 82.4 2.1 3.0 2.0 0.6 44.3 0.00 0.0000000 86.4
2020-08-09 21:00:00 82.8 39.3 55.6 82.8 82.8 1.0 2.4 1.7 350.1 30.3 0.00 0.0000000 86.3
2020-08-09 21:05:00 83.0 40.2 56.4 83.0 82.4 1.7 1.9 1.4 337.6 3.4 0.00 0.0000000 86.3
2020-08-09 21:10:00 82.9 40.0 56.1 82.9 82.9 1.7 2.1 1.5 28.1 0.9 0.00 0.0000000 86.2
2020-08-09 21:15:00 82.8 39.0 55.3 82.8 82.8 1.2 1.9 1.3 15.6 39.5 0.00 0.0000000 86.2
2020-08-09 21:20:00 82.6 39.1 55.2 82.6 82.6 1.5 2.1 1.4 32.8 16.1 0.00 0.0000000 86.1
2020-08-09 21:25:00 82.6 39.2 55.3 82.6 82.6 1.0 2.4 1.6 344.7 2.3 0.00 0.0000000 86.1
2020-08-09 21:30:00 82.5 39.9 55.7 82.5 82.5 2.1 2.4 1.7 335.3 337.8 0.00 0.0000000 86.0
2020-08-09 21:35:00 82.0 39.1 54.7 82.0 82.0 1.5 2.1 1.1 95.4 353.3 0.00 0.0000000 86.0
2020-08-09 21:40:00 81.2 40.5 54.9 81.2 80.9 1.5 3.0 1.6 55.0 107.7 0.00 0.0000000 85.9
2020-08-09 21:45:00 80.4 41.0 54.5 80.4 80.3 1.9 2.4 1.7 146.7 139.0 0.00 0.0000000 85.9
2020-08-09 21:50:00 81.0 39.0 53.7 81.0 81.0 3.5 4.9 2.8 119.9 131.3 0.00 0.0000000 85.9
2020-08-09 21:55:00 81.4 39.9 54.6 81.4 81.4 3.0 5.1 3.4 105.0 113.3 0.00 0.0000000 85.8
2020-08-09 22:00:00 81.2 40.3 54.8 81.2 80.8 1.9 3.3 2.8 100.7 101.7 0.00 0.0000000 85.7
2020-08-09 22:05:00 81.2 40.2 54.7 81.2 80.8 1.9 2.8 2.1 112.0 106.2 0.00 0.0000000 85.7
2020-08-09 22:10:00 81.1 40.7 55.0 81.1 80.8 1.2 1.7 1.3 103.4 110.7 0.00 0.0000000 85.7
2020-08-09 22:15:00 81.1 39.6 54.3 81.1 81.1 1.5 1.9 1.3 97.9 111.0 0.00 0.0000000 85.6
2020-08-09 22:20:00 81.8 38.7 54.2 81.8 81.8 1.5 3.0 1.6 71.1 95.3 0.00 0.0000000 85.6
2020-08-09 22:25:00 81.7 39.1 54.4 81.7 81.7 3.0 3.7 2.0 131.3 111.8 0.00 0.0000000 85.5
2020-08-09 22:30:00 81.7 39.9 55.0 81.7 81.7 1.5 3.5 2.3 117.4 108.7 0.00 0.0000000 85.4
2020-08-09 22:35:00 81.2 43.5 56.9 81.2 81.2 3.0 3.0 1.7 208.9 193.1 0.00 0.0000000 85.4
2020-08-09 22:40:00 80.6 42.2 55.5 80.6 80.5 3.7 4.6 3.7 248.7 232.3 0.00 0.0000000 85.4
2020-08-09 22:45:00 80.9 39.0 53.6 80.9 80.9 4.6 5.3 4.1 230.3 243.4 0.00 0.0000000 85.3
2020-08-09 22:50:00 82.2 38.7 54.6 82.2 82.2 4.0 5.3 3.9 202.6 206.8 0.00 0.0000000 85.2
2020-08-09 22:55:00 83.0 36.4 53.6 83.0 83.0 2.1 4.2 2.9 301.7 224.3 0.00 0.0000000 85.2
2020-08-09 23:00:00 83.9 35.3 53.5 83.9 83.9 3.1 3.5 2.5 58.3 58.2 0.00 0.0000000 85.2
2020-08-09 23:05:00 84.3 36.5 54.8 84.3 84.3 5.8 6.2 4.7 63.9 83.0 0.00 0.0000000 85.1
2020-08-09 23:10:00 82.3 42.3 57.2 82.3 82.0 6.2 6.3 5.2 66.7 74.1 0.00 0.0000000 85.1
2020-08-09 23:15:00 82.4 40.9 56.3 82.4 81.9 7.8 8.1 6.1 100.4 80.1 0.00 0.0000000 85.0
2020-08-09 23:20:00 82.2 41.4 56.4 82.2 81.8 6.7 8.1 6.0 110.7 109.0 0.00 0.0000000 85.0
2020-08-09 23:25:00 82.2 40.5 55.8 82.2 81.7 6.0 7.2 5.8 124.8 118.1 0.00 0.0000000 85.0
2020-08-09 23:30:00 83.0 37.8 54.6 83.0 83.0 9.0 9.7 7.0 129.7 126.9 0.00 0.0000000 84.9
2020-08-09 23:35:00 83.6 37.4 54.9 83.6 83.6 7.4 10.3 8.3 125.2 125.6 0.00 0.0000000 84.9
2020-08-09 23:40:00 83.7 37.4 55.0 83.7 83.7 7.6 9.7 8.3 134.6 130.9 0.00 0.0000000 84.8
2020-08-09 23:45:00 83.2 38.2 55.1 83.2 83.2 6.5 9.2 7.3 136.1 129.8 0.00 0.0000000 84.8
2020-08-09 23:50:00 82.5 38.8 54.9 82.5 82.5 6.7 7.8 6.8 134.0 132.5 0.00 0.0000000 84.8
2020-08-09 23:55:00 82.6 38.3 54.7 82.6 82.6 9.4 10.3 8.4 133.8 133.2 0.00 0.0000000 84.7
2020-08-10 00:00:00 82.8 37.6 54.3 82.8 82.8 8.1 12.1 9.5 140.0 136.5 0.00 0.0000000 84.7
2020-08-10 00:05:00 82.8 37.8 54.4 82.8 82.8 9.9 10.1 8.9 141.5 139.9 0.00 0.0000000 84.7
2020-08-10 00:10:00 82.9 37.1 54.1 82.9 82.9 8.3 11.7 9.0 159.7 141.4 0.00 0.0000000 84.7
2020-08-10 00:15:00 82.9 37.5 54.4 82.9 82.9 7.1 11.3 8.8 139.1 143.2 0.00 0.0000000 84.6
2020-08-10 00:20:00 82.5 37.8 54.2 82.5 82.5 6.5 9.4 7.6 146.8 145.9 0.00 0.0000000 84.6
2020-08-10 00:25:00 82.2 38.3 54.3 82.2 82.2 6.7 8.3 6.9 152.8 149.4 0.00 0.0000000 84.6
2020-08-10 00:30:00 81.4 39.1 54.2 81.4 81.4 6.3 7.2 5.9 149.7 146.8 0.00 0.0000000 84.5
2020-08-10 00:35:00 81.1 40.2 54.6 81.1 80.7 5.3 6.3 5.3 149.9 148.4 0.00 0.0000000 84.5
2020-08-10 00:40:00 80.3 40.6 54.2 80.3 80.2 4.7 5.8 5.0 164.0 144.9 0.00 0.0000000 84.5
2020-08-10 00:45:00 80.3 40.9 54.4 80.3 80.2 5.8 6.2 5.3 137.1 146.9 0.00 0.0000000 84.4
2020-08-10 00:50:00 79.7 41.7 54.4 79.7 79.7 6.0 6.0 5.4 135.9 150.2 0.00 0.0000000 84.4
2020-08-10 00:55:00 79.5 42.3 54.6 79.5 79.5 5.1 6.0 5.1 148.0 145.4 0.00 0.0000000 84.3
2020-08-10 01:00:00 79.1 43.1 54.8 79.1 79.1 4.7 6.2 4.7 137.7 144.9 0.00 0.0000000 84.3
2020-08-10 01:05:00 79.0 43.5 54.9 79.0 79.0 4.2 5.8 4.6 140.1 140.3 0.00 0.0000000 84.3
2020-08-10 01:10:00 78.7 44.1 55.1 78.7 78.7 2.8 6.0 4.0 132.2 132.3 0.00 0.0000000 84.2
2020-08-10 01:15:00 78.4 45.0 55.3 78.4 78.4 2.8 3.3 2.9 137.9 136.0 0.00 0.0000000 84.2
2020-08-10 01:20:00 78.1 45.6 55.4 78.1 78.1 2.2 2.6 2.2 114.0 123.7 0.00 0.0000000 84.2
2020-08-10 01:25:00 78.2 45.4 55.4 78.2 78.2 3.7 3.8 3.2 116.1 112.4 0.00 0.0000000 84.1
2020-08-10 01:30:00 77.7 46.3 55.4 77.7 77.7 3.3 3.8 3.3 132.2 118.9 0.00 0.0000000 84.1
2020-08-10 01:35:00 77.5 46.8 55.5 77.5 77.5 2.4 3.1 2.8 138.7 133.1 0.00 0.0000000 84.1
2020-08-10 01:40:00 77.2 46.8 55.3 77.2 77.2 2.2 2.8 2.4 144.4 139.8 0.00 0.0000000 84.0
2020-08-10 01:45:00 77.5 46.4 55.3 77.5 77.5 3.5 4.0 2.8 135.9 139.6 0.00 0.0000000 84.0
2020-08-10 01:50:00 77.4 46.4 55.2 77.4 77.4 4.4 4.9 4.0 132.7 124.9 0.00 0.0000000 84.0
2020-08-10 01:55:00 77.4 47.2 55.7 77.4 77.4 3.0 4.9 3.8 132.7 125.3 0.00 0.0000000 83.9
2020-08-10 02:00:00 77.3 47.5 55.8 77.3 77.3 1.9 3.0 2.2 113.0 127.7 0.00 0.0000000 83.9
2020-08-10 02:05:00 77.2 48.2 56.1 77.2 77.2 2.8 2.8 2.0 107.8 111.7 0.00 0.0000000 83.9
2020-08-10 02:10:00 77.2 48.7 56.4 77.2 77.2 3.7 3.8 3.1 127.4 116.8 0.00 0.0000000 83.8
2020-08-10 02:15:00 76.4 49.2 55.9 76.4 76.4 3.7 4.0 3.7 142.3 136.4 0.00 0.0000000 83.8
2020-08-10 02:20:00 76.1 49.5 55.8 76.1 76.1 4.4 4.6 4.2 135.0 136.9 0.00 0.0000000 83.8
2020-08-10 02:25:00 76.2 50.4 56.4 76.2 76.2 4.6 4.9 4.4 135.1 127.2 0.00 0.0000000 83.7
2020-08-10 02:30:00 76.7 49.8 56.5 76.7 76.7 4.6 5.8 4.9 135.6 128.6 0.00 0.0000000 83.7
2020-08-10 02:35:00 76.7 49.5 56.4 76.7 76.7 5.3 6.0 5.2 131.3 133.8 0.00 0.0000000 83.7
2020-08-10 02:40:00 76.5 50.4 56.7 76.5 76.5 6.2 6.2 5.1 131.6 134.8 0.00 0.0000000 83.6
2020-08-10 02:45:00 76.3 51.2 56.9 76.3 76.3 4.0 5.6 4.7 126.8 130.7 0.00 0.0000000 83.6
2020-08-10 02:50:00 76.1 51.6 57.0 76.1 76.1 4.0 4.9 4.2 121.8 124.5 0.00 0.0000000 83.5
2020-08-10 02:55:00 76.2 52.1 57.4 76.2 76.2 4.7 5.8 4.9 108.9 122.8 0.00 0.0000000 83.5
2020-08-10 03:00:00 76.2 52.5 57.5 76.2 76.2 5.1 5.6 5.1 128.8 125.1 0.00 0.0000000 83.5
2020-08-10 03:05:00 76.0 52.7 57.5 76.0 76.0 4.4 6.3 5.1 141.6 134.4 0.00 0.0000000 83.4
2020-08-10 03:10:00 75.3 54.4 57.7 75.3 75.3 4.7 5.5 4.7 139.3 136.1 0.00 0.0000000 83.4
2020-08-10 03:15:00 75.2 54.1 57.5 75.2 75.2 4.9 6.7 4.9 126.6 132.5 0.00 0.0000000 83.3
2020-08-10 03:20:00 74.8 54.4 57.3 74.8 74.8 5.8 6.2 5.5 142.1 139.7 0.00 0.0000000 83.3
2020-08-10 03:25:00 75.2 53.5 57.1 75.2 75.2 6.3 7.4 5.8 139.9 141.9 0.00 0.0000000 83.3
2020-08-10 03:30:00 75.4 53.3 57.2 75.4 75.4 4.9 6.9 5.7 146.3 145.2 0.00 0.0000000 83.3
2020-08-10 03:35:00 75.3 53.9 57.5 75.3 75.3 4.9 6.7 5.2 146.9 142.1 0.00 0.0000000 83.2
2020-08-10 03:40:00 74.8 54.6 57.4 74.8 74.8 3.5 5.3 4.4 136.2 132.8 0.00 0.0000000 83.2
2020-08-10 03:45:00 74.3 55.7 57.4 74.3 74.3 3.8 4.4 3.9 127.0 134.0 0.00 0.0000000 83.2
2020-08-10 03:50:00 73.6 56.3 57.1 73.6 73.6 3.8 4.2 3.8 141.1 138.9 0.00 0.0000000 83.1
2020-08-10 03:55:00 73.2 57.0 57.0 73.2 73.2 4.4 4.6 4.1 138.5 142.0 0.00 0.0000000 83.1
2020-08-10 04:00:00 73.2 56.8 56.9 73.2 73.2 4.9 6.2 4.7 147.6 145.8 0.00 0.0000000 83.0
2020-08-10 04:05:00 73.0 57.7 57.2 73.0 73.0 5.3 5.3 4.6 162.6 153.4 0.00 0.0000000 83.0
2020-08-10 04:10:00 72.8 57.4 56.9 72.8 72.8 4.4 6.0 4.9 155.4 148.9 0.00 0.0000000 83.0
2020-08-10 04:15:00 73.2 57.5 57.4 73.2 73.2 4.0 5.3 4.4 135.6 143.8 0.00 0.0000000 82.9
2020-08-10 04:20:00 73.1 57.4 57.2 73.1 73.1 4.2 5.1 4.3 137.0 146.7 0.00 0.0000000 82.9
2020-08-10 04:25:00 72.8 57.9 57.1 72.8 72.8 4.4 5.1 4.6 147.7 148.1 0.00 0.0000000 82.9
2020-08-10 04:30:00 72.5 58.4 57.1 72.5 72.5 4.4 5.1 4.5 136.2 141.4 0.00 0.0000000 82.9
2020-08-10 04:35:00 72.5 58.9 57.3 72.5 72.5 4.0 4.7 4.3 161.9 151.4 0.00 0.0000000 82.9
2020-08-10 04:40:00 72.0 59.9 57.3 72.0 72.0 4.0 4.6 4.0 167.5 162.3 0.00 0.0000000 82.8
2020-08-10 04:45:00 71.9 60.0 57.2 71.9 71.9 3.5 4.4 4.0 173.1 175.2 0.00 0.0000000 82.8
2020-08-10 04:50:00 71.7 59.7 57.0 71.7 71.7 3.3 3.7 3.2 180.1 179.7 0.00 0.0000000 82.7
2020-08-10 04:55:00 71.6 59.6 56.8 71.6 71.6 2.8 3.5 3.0 177.8 176.2 0.00 0.0000000 82.7
2020-08-10 05:00:00 71.7 60.5 57.3 71.7 71.7 3.3 3.5 3.1 201.5 191.0 0.00 0.0000000 82.7
2020-08-10 05:05:00 71.5 60.9 57.3 71.5 71.5 3.0 3.1 2.8 221.7 204.8 0.00 0.0000000 82.7
2020-08-10 05:10:00 71.2 61.2 57.2 71.2 71.2 2.8 3.8 3.3 218.4 216.6 0.00 0.0000000 82.6
2020-08-10 05:15:00 70.9 62.2 57.3 70.9 70.9 3.8 3.8 3.2 214.8 216.3 0.00 0.0000000 82.6
2020-08-10 05:20:00 70.8 62.6 57.4 70.8 70.8 4.4 4.4 4.0 196.5 205.1 0.00 0.0000000 82.6
2020-08-10 05:25:00 70.6 63.0 57.4 70.6 70.6 3.7 4.7 3.9 181.9 202.8 0.00 0.0000000 82.5
2020-08-10 05:30:00 70.3 63.9 57.5 70.3 70.3 2.6 4.0 3.2 207.6 207.8 0.00 0.0000000 82.5
2020-08-10 05:35:00 70.2 63.0 57.0 70.2 70.2 3.1 3.7 2.7 211.4 200.5 0.00 0.0000000 82.5
2020-08-10 05:40:00 70.3 62.7 57.0 70.3 70.3 2.4 3.3 2.4 218.4 211.7 0.00 0.0000000 82.5
2020-08-10 05:45:00 69.2 65.3 57.0 69.2 69.2 2.6 3.0 2.6 238.7 236.7 0.00 0.0000000 82.4
2020-08-10 05:50:00 69.0 65.6 57.1 69.0 69.0 1.9 2.6 2.1 222.1 229.0 0.00 0.0000000 82.3
2020-08-10 05:55:00 68.7 66.4 57.1 68.7 68.7 2.2 2.4 2.0 252.3 240.6 0.00 0.0000000 82.3
2020-08-10 06:00:00 68.1 67.3 56.8 68.1 68.1 3.0 3.5 2.9 240.5 243.4 0.00 0.0000000 82.3
2020-08-10 06:05:00 67.4 68.0 56.4 67.4 67.4 3.8 3.8 3.3 243.9 242.5 0.00 0.0010000 82.2
2020-08-10 06:10:00 67.6 68.7 56.9 67.6 67.6 4.0 4.4 4.1 235.7 237.4 0.00 0.0020000 82.2
2020-08-10 06:15:00 67.8 68.5 57.0 67.8 67.8 2.8 4.0 3.3 234.5 232.7 0.00 0.0030000 82.2
2020-08-10 06:20:00 68.3 67.3 57.1 68.3 68.3 2.1 2.8 2.4 228.9 232.5 0.00 0.0050000 82.1
2020-08-10 06:25:00 68.0 67.5 56.8 68.0 68.0 2.6 2.8 2.4 239.2 235.7 0.00 0.0080000 82.1
2020-08-10 06:30:00 67.9 68.1 57.0 67.9 67.9 2.2 2.8 2.6 227.0 235.8 0.00 0.0130000 82.1
2020-08-10 06:35:00 68.1 67.5 56.9 68.1 68.1 2.8 3.1 2.4 202.1 212.3 0.00 0.0180000 82.0
2020-08-10 06:40:00 68.8 66.3 57.1 68.8 68.8 2.8 3.7 3.0 224.5 208.2 0.00 0.0270000 82.0
2020-08-10 06:45:00 69.0 66.2 57.3 69.0 69.0 3.8 4.0 3.5 174.0 190.3 0.00 0.0240000 81.9
2020-08-10 06:50:00 70.0 65.1 57.7 70.0 70.0 4.0 5.1 4.3 169.5 175.7 0.00 0.0520000 81.9
2020-08-10 06:55:00 70.7 64.7 58.2 70.7 70.7 4.0 4.9 4.3 177.8 176.5 0.00 0.0670000 81.9
2020-08-10 07:00:00 71.1 63.8 58.2 71.1 71.1 5.1 5.3 4.4 173.1 177.2 0.00 0.0830000 81.9
2020-08-10 07:05:00 71.7 62.6 58.3 71.7 71.7 4.2 5.5 4.7 180.0 173.1 0.00 0.0990000 81.8
2020-08-10 07:10:00 72.6 60.3 58.0 72.6 72.6 4.0 5.5 4.5 174.9 165.8 0.00 0.1140000 81.8
2020-08-10 07:15:00 73.3 59.9 58.6 73.3 73.3 3.8 5.3 4.5 172.2 166.0 0.00 0.1270000 81.7
2020-08-10 07:20:00 74.1 58.2 58.5 74.1 74.1 4.9 6.2 4.7 157.8 165.1 0.00 0.1420000 81.7
2020-08-10 07:25:00 74.6 57.2 58.5 74.6 74.6 5.3 6.5 4.9 149.0 160.6 0.00 0.1570000 81.7
2020-08-10 07:30:00 75.5 55.8 58.6 75.5 75.5 6.9 7.1 5.9 148.5 153.6 0.00 0.1740000 81.6
2020-08-10 07:35:00 75.9 55.7 58.9 75.9 75.9 7.6 7.6 5.8 164.3 154.1 0.00 0.1890000 81.6
2020-08-10 07:40:00 76.3 54.8 58.8 76.3 76.3 6.9 10.3 8.1 132.7 152.5 0.00 0.2060000 81.6
2020-08-10 07:45:00 76.5 54.9 59.1 76.5 76.5 7.2 10.5 7.7 168.5 153.4 0.00 0.2190000 81.6
2020-08-10 07:50:00 76.9 54.4 59.2 76.9 76.9 7.1 8.5 6.8 160.5 153.8 0.00 0.2340000 81.6
2020-08-10 07:55:00 77.3 54.2 59.5 77.3 77.3 7.1 9.0 7.1 164.7 157.9 0.00 0.2500000 81.5
2020-08-10 08:00:00 77.9 53.9 59.9 77.9 77.9 8.8 9.4 8.1 155.5 153.0 0.00 0.2660000 81.5
2020-08-10 08:05:00 77.6 54.7 60.0 77.6 77.6 6.0 12.1 9.3 149.0 148.1 0.00 0.2830000 81.5
2020-08-10 08:10:00 78.1 53.9 60.0 78.1 78.1 8.7 11.3 8.8 160.5 153.4 0.00 0.2990000 81.5
2020-08-10 08:15:00 78.5 52.7 59.8 78.5 78.5 9.2 11.9 9.2 141.8 159.4 0.00 0.3150000 81.5
2020-08-10 08:20:00 79.2 52.3 60.2 79.2 79.2 12.4 13.5 9.7 173.6 162.5 0.00 0.3300000 81.5
2020-08-10 08:25:00 78.9 52.2 59.8 78.9 78.9 13.0 13.0 9.9 157.7 166.2 0.00 0.3480000 81.4
2020-08-10 08:30:00 79.6 52.2 60.5 79.6 79.6 11.3 16.2 11.2 158.1 164.1 0.00 0.3640000 81.4
2020-08-10 08:35:00 80.6 50.4 60.4 80.6 81.4 11.5 12.4 10.3 143.3 149.6 0.00 0.3800000 81.4
2020-08-10 08:40:00 80.5 50.3 60.4 80.5 81.3 7.8 11.7 10.1 135.4 149.2 0.00 0.3970000 81.4
2020-08-10 08:45:00 80.4 50.0 60.1 80.4 81.2 11.2 13.3 11.4 147.3 142.1 0.00 0.4120000 81.4
2020-08-10 08:50:00 80.5 50.4 60.4 80.5 81.3 11.2 16.9 12.3 147.3 165.2 0.00 0.4280000 81.4
2020-08-10 08:55:00 80.7 50.0 60.3 80.7 81.4 11.7 15.6 12.7 149.3 159.0 0.00 0.4430000 81.4
2020-08-10 09:00:00 80.8 48.5 59.6 80.8 81.4 13.3 14.9 11.7 164.7 160.5 0.00 0.4590000 81.4
2020-08-10 09:05:00 81.1 49.1 60.2 81.1 81.7 11.3 15.1 12.0 153.6 156.9 0.00 0.4740000 81.4
2020-08-10 09:10:00 81.2 48.5 60.0 81.2 81.8 10.6 12.6 10.8 136.4 155.9 0.00 0.4920000 81.4
2020-08-10 09:15:00 82.3 47.8 60.5 82.3 82.7 8.8 12.8 9.6 133.2 148.9 0.00 0.5060000 81.5
2020-08-10 09:20:00 82.0 47.9 60.3 82.0 82.5 9.2 12.4 10.3 128.4 151.9 0.00 0.5200000 81.5
2020-08-10 09:25:00 83.0 46.0 60.1 83.0 83.2 10.5 12.1 10.0 147.9 140.7 0.00 0.5340000 81.5
2020-08-10 09:30:00 82.8 46.6 60.2 82.8 83.1 10.3 12.6 10.5 125.1 145.2 0.00 0.5490000 81.5
2020-08-10 09:35:00 83.5 45.5 60.2 83.5 83.6 8.8 11.7 9.4 145.7 143.3 0.00 0.5640000 81.5
2020-08-10 09:40:00 83.8 44.9 60.1 83.8 83.9 10.8 12.6 10.4 148.1 157.5 0.00 0.5770000 81.5
2020-08-10 09:45:00 84.4 44.2 60.3 84.4 84.4 7.4 11.5 9.5 144.4 150.9 0.00 0.5920000 81.5
2020-08-10 09:50:00 84.6 43.7 60.2 84.6 84.6 7.8 13.7 9.6 150.1 156.1 0.00 0.6050000 81.6
2020-08-10 09:55:00 84.9 43.0 60.0 84.9 84.8 8.7 15.1 9.3 148.7 148.9 0.00 0.6180000 81.6
2020-08-10 10:00:00 85.7 43.3 60.9 85.7 85.8 8.0 12.1 8.7 129.8 156.0 0.00 0.6340000 81.6
2020-08-10 10:05:00 85.8 42.4 60.4 85.8 85.8 7.4 12.1 8.8 131.6 146.0 0.00 0.6460000 81.7
2020-08-10 10:10:00 85.7 42.1 60.0 85.7 85.5 7.2 12.2 9.1 168.4 154.7 0.00 0.6570000 81.7
2020-08-10 10:15:00 86.5 41.4 60.3 86.5 86.4 10.1 11.2 8.6 167.1 139.9 0.00 0.6700000 81.8
2020-08-10 10:20:00 86.9 42.1 61.1 86.9 87.0 10.3 12.2 8.9 178.7 159.6 0.00 0.6820000 81.8
2020-08-10 10:25:00 87.3 40.8 60.6 87.3 87.2 10.1 11.0 9.1 157.8 172.9 0.00 0.6930000 81.8
2020-08-10 10:30:00 87.9 39.2 60.0 87.9 87.9 7.6 12.4 8.4 164.8 161.7 0.00 0.7050000 81.8
2020-08-10 10:35:00 87.9 39.1 60.0 87.9 87.9 11.0 11.0 8.6 145.5 132.0 0.00 0.7130000 81.9
2020-08-10 10:40:00 88.7 37.3 59.3 88.7 88.7 8.7 10.5 7.9 149.5 144.3 0.00 0.7260000 82.0
2020-08-10 10:45:00 89.5 38.8 61.1 89.5 89.5 5.1 9.7 7.1 111.4 144.5 0.00 0.7370000 82.0
2020-08-10 10:50:00 89.1 37.3 59.6 89.1 89.1 7.1 11.5 8.3 129.0 169.7 0.00 0.7470000 82.0
2020-08-10 10:55:00 88.9 35.9 58.4 88.9 88.9 9.7 13.5 9.2 144.4 164.6 0.00 0.7590000 82.1
2020-08-10 11:00:00 89.9 36.3 59.6 89.9 89.9 7.2 11.9 9.0 163.1 163.6 0.00 0.7680000 82.1
2020-08-10 11:05:00 89.9 34.8 58.4 89.9 89.9 8.3 8.7 6.2 147.5 174.5 0.00 0.7780000 82.2
2020-08-10 11:10:00 90.4 33.7 58.0 90.4 90.4 6.9 11.5 8.2 157.8 139.1 0.00 0.7860000 82.3
2020-08-10 11:15:00 90.9 33.5 58.2 90.9 90.9 7.1 9.7 7.0 150.7 157.6 0.00 0.7980000 82.3
2020-08-10 11:20:00 91.4 32.7 58.1 91.4 91.4 7.1 11.7 6.4 157.4 155.4 0.00 0.8030000 82.4
2020-08-10 11:25:00 91.8 33.7 59.2 91.8 91.8 6.3 9.0 6.3 127.6 151.5 0.00 0.8090000 82.5
2020-08-10 11:30:00 93.3 31.1 58.2 93.3 93.3 7.1 12.1 7.4 130.8 145.5 0.00 0.8170000 82.6
2020-08-10 11:35:00 93.0 32.3 59.0 93.0 93.0 7.4 8.3 5.8 205.3 144.6 0.00 0.8280000 82.7
2020-08-10 11:40:00 93.1 30.9 58.0 93.1 93.1 5.3 8.8 6.9 112.5 134.2 0.00 0.8330000 82.7
2020-08-10 11:45:00 92.9 29.7 56.7 92.9 92.9 4.9 9.9 6.6 194.4 168.6 0.00 0.8380000 82.8
2020-08-10 11:50:00 92.9 29.4 56.4 92.9 92.9 4.9 9.4 6.3 163.6 188.7 0.00 0.8460000 82.9
2020-08-10 11:55:00 93.9 30.3 58.0 93.9 93.9 9.0 13.1 6.2 165.2 158.5 0.00 0.8520000 83.0
2020-08-10 12:00:00 94.2 29.9 58.0 94.2 94.2 5.1 9.9 6.4 160.4 174.0 0.00 0.8580000 83.1
2020-08-10 12:05:00 94.2 28.8 56.9 94.2 94.2 4.9 9.0 6.6 101.2 137.1 0.00 0.8570000 83.2
2020-08-10 12:10:00 94.2 28.6 56.7 94.2 94.2 9.6 9.9 5.7 152.5 124.2 0.00 0.8630000 83.4
2020-08-10 12:15:00 94.0 29.0 56.9 94.0 94.0 5.5 11.0 7.8 137.8 152.1 0.00 0.8690000 83.5
2020-08-10 12:20:00 95.3 27.9 56.9 95.3 95.3 6.3 11.5 7.1 157.5 169.6 0.00 0.8720000 83.6
2020-08-10 12:25:00 95.8 28.0 57.5 95.8 95.8 5.6 10.3 6.4 198.1 220.1 0.00 0.8790000 83.7
2020-08-10 12:30:00 95.3 27.7 56.7 95.3 95.3 5.3 8.8 6.2 226.4 196.9 0.00 0.8780000 83.9
2020-08-10 12:35:00 95.9 28.2 57.8 95.9 95.9 4.9 7.8 5.3 213.1 235.0 0.00 0.8870000 84.0
2020-08-10 12:40:00 96.7 24.8 54.8 96.7 96.7 6.0 8.8 6.0 142.1 177.7 0.00 0.8870000 84.2
2020-08-10 12:45:00 97.2 26.0 56.6 97.2 97.2 7.2 9.4 5.8 172.0 168.0 0.00 0.8910000 84.3
2020-08-10 12:50:00 97.6 23.7 54.4 97.6 97.6 5.6 6.2 2.9 129.3 167.1 0.00 0.8900000 84.4
2020-08-10 12:55:00 97.8 24.6 55.6 97.8 97.8 9.2 9.2 5.5 111.0 135.3 0.00 0.8940000 84.6
2020-08-10 13:00:00 97.7 23.7 54.4 97.7 97.7 7.6 9.0 6.2 120.0 97.9 0.00 0.8990000 84.7
2020-08-10 13:05:00 97.6 23.4 54.1 97.6 97.6 6.0 8.7 4.7 133.4 125.3 0.00 0.9020000 84.8
2020-08-10 13:10:00 97.4 23.6 54.1 97.4 97.4 3.7 7.4 4.7 81.2 98.2 0.00 0.9010000 85.0
2020-08-10 13:15:00 98.6 23.4 54.9 98.6 98.6 6.3 8.1 5.3 141.5 122.3 0.00 0.9110000 85.2
2020-08-10 13:20:00 98.4 21.1 51.9 98.4 98.4 4.7 6.3 3.5 109.1 81.3 0.00 0.9350000 85.3
2020-08-10 13:25:00 98.7 23.1 54.6 98.7 98.7 1.9 6.2 3.3 280.1 42.8 0.00 0.9580000 85.5
2020-08-10 13:30:00 99.3 22.3 54.2 99.3 99.3 2.4 7.2 3.6 166.7 182.5 0.00 0.6180000 85.6
2020-08-10 13:35:00 99.8 22.2 54.5 99.8 99.8 5.5 7.1 5.4 118.9 122.2 0.00 0.9110000 85.7
2020-08-10 13:40:00 99.6 19.8 51.2 99.6 99.6 4.4 6.0 4.8 114.6 124.8 0.00 0.4690000 85.9

Data is courtesy of the NM Climate Center. DO NOT USE IN LEGAL PROCEEDINGS.